sensor_id;sensor_type;location;lat;lon;timestamp;temperature;humidity
8593;DHT22;4334;49.982;8.398;2022-07-18T00:01:52;17.60;90.30
8593;DHT22;4334;49.982;8.398;2022-07-18T00:04:20;17.60;90.50
8593;DHT22;4334;49.982;8.398;2022-07-18T00:06:47;17.40;91.10
8593;DHT22;4334;49.982;8.398;2022-07-18T00:09:14;17.40;91.40
8593;DHT22;4334;49.982;8.398;2022-07-18T00:11:41;17.20;90.70
8593;DHT22;4334;49.982;8.398;2022-07-18T00:14:07;17.20;90.80
8593;DHT22;4334;49.982;8.398;2022-07-18T00:16:34;17.10;91.00
8593;DHT22;4334;49.982;8.398;2022-07-18T00:19:01;17.10;91.40
8593;DHT22;4334;49.982;8.398;2022-07-18T00:21:29;17.10;91.90
8593;DHT22;4334;49.982;8.398;2022-07-18T00:23:56;17.10;91.90
8593;DHT22;4334;49.982;8.398;2022-07-18T00:26:23;17.20;92.20
8593;DHT22;4334;49.982;8.398;2022-07-18T00:36:11;17.30;92.60
8593;DHT22;4334;49.982;8.398;2022-07-18T00:38:39;17.30;92.80
8593;DHT22;4334;49.982;8.398;2022-07-18T00:41:06;17.20;93.10
8593;DHT22;4334;49.982;8.398;2022-07-18T00:43:33;17.30;92.80
8593;DHT22;4334;49.982;8.398;2022-07-18T00:45:59;17.20;92.60
8593;DHT22;4334;49.982;8.398;2022-07-18T00:48:26;17.30;92.80
8593;DHT22;4334;49.982;8.398;2022-07-18T00:50:53;17.30;92.00
8593;DHT22;4334;49.982;8.398;2022-07-18T00:53:20;17.40;91.70
8593;DHT22;4334;49.982;8.398;2022-07-18T00:55:52;17.40;92.00
8593;DHT22;4334;49.982;8.398;2022-07-18T00:58:20;18.90;92.90
8593;DHT22;4334;49.982;8.398;2022-07-18T01:00:47;17.50;91.70
8593;DHT22;4334;49.982;8.398;2022-07-18T01:03:32;17.40;91.60
8593;DHT22;4334;49.982;8.398;2022-07-18T01:05:58;21.10;93.20
8593;DHT22;4334;49.982;8.398;2022-07-18T01:08:25;17.60;91.10
8593;DHT22;4334;49.982;8.398;2022-07-18T01:10:53;17.50;91.40
8593;DHT22;4334;49.982;8.398;2022-07-18T01:13:20;17.50;91.50
8593;DHT22;4334;49.982;8.398;2022-07-18T01:15:47;18.00;91.70
8593;DHT22;4334;49.982;8.398;2022-07-18T01:18:13;17.30;91.80
8593;DHT22;4334;49.982;8.398;2022-07-18T01:20:41;17.30;92.20
8593;DHT22;4334;49.982;8.398;2022-07-18T01:23:08;17.40;92.30
8593;DHT22;4334;49.982;8.398;2022-07-18T01:25:35;22.10;95.10
8593;DHT22;4334;49.982;8.398;2022-07-18T01:28:02;17.10;92.50
8593;DHT22;4334;49.982;8.398;2022-07-18T01:30:29;17.00;93.00
8593;DHT22;4334;49.982;8.398;2022-07-18T01:32:57;16.80;93.40
8593;DHT22;4334;49.982;8.398;2022-07-18T01:35:25;16.80;93.80
8593;DHT22;4334;49.982;8.398;2022-07-18T01:37:56;16.70;94.30
8593;DHT22;4334;49.982;8.398;2022-07-18T01:40:23;20.80;96.30
8593;DHT22;4334;49.982;8.398;2022-07-18T01:42:51;16.70;94.20
8593;DHT22;4334;49.982;8.398;2022-07-18T01:45:18;16.70;94.30
8593;DHT22;4334;49.982;8.398;2022-07-18T01:47:45;16.60;94.50
8593;DHT22;4334;49.982;8.398;2022-07-18T01:50:12;16.60;94.70
8593;DHT22;4334;49.982;8.398;2022-07-18T01:55:09;16.60;95.00
8593;DHT22;4334;49.982;8.398;2022-07-18T01:57:37;16.40;95.00
8593;DHT22;4334;49.982;8.398;2022-07-18T02:00:07;16.30;95.30
8593;DHT22;4334;49.982;8.398;2022-07-18T02:02:34;16.30;95.60
8593;DHT22;4334;49.982;8.398;2022-07-18T02:05:00;16.10;96.40
8593;DHT22;4334;49.982;8.398;2022-07-18T02:07:29;16.00;96.80
8593;DHT22;4334;49.982;8.398;2022-07-18T02:09:57;16.00;97.40
8593;DHT22;4334;49.982;8.398;2022-07-18T02:12:25;16.00;97.50
8593;DHT22;4334;49.982;8.398;2022-07-18T02:22:14;15.80;98.80
8593;DHT22;4334;49.982;8.398;2022-07-18T02:24:41;15.90;99.40
8593;DHT22;4334;49.982;8.398;2022-07-18T02:27:08;15.80;99.20
8593;DHT22;4334;49.982;8.398;2022-07-18T02:29:37;15.80;99.30
8593;DHT22;4334;49.982;8.398;2022-07-18T02:32:05;15.80;99.90
8593;DHT22;4334;49.982;8.398;2022-07-18T02:34:32;15.90;99.90
8593;DHT22;4334;49.982;8.398;2022-07-18T02:36:58;15.90;99.90
8593;DHT22;4334;49.982;8.398;2022-07-18T02:39:25;16.00;99.90
8593;DHT22;4334;49.982;8.398;2022-07-18T02:41:52;16.20;98.10
8593;DHT22;4334;49.982;8.398;2022-07-18T02:46:47;16.70;97.10
8593;DHT22;4334;49.982;8.398;2022-07-18T02:49:15;16.70;96.30
8593;DHT22;4334;49.982;8.398;2022-07-18T02:51:54;16.90;95.80
8593;DHT22;4334;49.982;8.398;2022-07-18T02:56:48;17.10;95.10
8593;DHT22;4334;49.982;8.398;2022-07-18T02:59:14;16.90;95.40
8593;DHT22;4334;49.982;8.398;2022-07-18T03:01:41;16.90;95.10
8593;DHT22;4334;49.982;8.398;2022-07-18T03:04:10;16.90;94.90
8593;DHT22;4334;49.982;8.398;2022-07-18T03:06:36;16.90;95.20
8593;DHT22;4334;49.982;8.398;2022-07-18T03:09:04;16.90;94.90
8593;DHT22;4334;49.982;8.398;2022-07-18T03:11:30;16.80;95.20
8593;DHT22;4334;49.982;8.398;2022-07-18T03:16:24;16.70;95.80
8593;DHT22;4334;49.982;8.398;2022-07-18T03:18:51;16.60;95.80
8593;DHT22;4334;49.982;8.398;2022-07-18T03:21:19;16.50;96.30
8593;DHT22;4334;49.982;8.398;2022-07-18T03:26:13;16.50;96.50
8593;DHT22;4334;49.982;8.398;2022-07-18T03:28:40;16.50;96.60
8593;DHT22;4334;49.982;8.398;2022-07-18T03:31:06;16.40;96.60
8593;DHT22;4334;49.982;8.398;2022-07-18T03:33:33;16.40;96.80
8593;DHT22;4334;49.982;8.398;2022-07-18T03:36:00;16.00;98.00
8593;DHT22;4334;49.982;8.398;2022-07-18T03:38:28;16.10;98.30
8593;DHT22;4334;49.982;8.398;2022-07-18T03:40:54;15.80;98.70
8593;DHT22;4334;49.982;8.398;2022-07-18T03:43:21;15.80;99.90
8593;DHT22;4334;49.982;8.398;2022-07-18T03:45:48;15.80;99.70
8593;DHT22;4334;49.982;8.398;2022-07-18T03:48:15;15.80;99.90
8593;DHT22;4334;49.982;8.398;2022-07-18T03:53:08;15.90;99.90
8593;DHT22;4334;49.982;8.398;2022-07-18T03:55:37;15.90;99.90
8593;DHT22;4334;49.982;8.398;2022-07-18T04:02:59;16.20;99.90
8593;DHT22;4334;49.982;8.398;2022-07-18T04:05:26;16.20;99.90
8593;DHT22;4334;49.982;8.398;2022-07-18T04:07:52;16.10;99.90
8593;DHT22;4334;49.982;8.398;2022-07-18T04:10:19;16.10;99.90
8593;DHT22;4334;49.982;8.398;2022-07-18T04:12:48;16.10;99.90
8593;DHT22;4334;49.982;8.398;2022-07-18T04:15:17;16.20;99.90
8593;DHT22;4334;49.982;8.398;2022-07-18T04:17:44;18.40;99.90
8593;DHT22;4334;49.982;8.398;2022-07-18T04:20:11;21.20;99.90
8593;DHT22;4334;49.982;8.398;2022-07-18T04:22:49;16.20;99.90
8593;DHT22;4334;49.982;8.398;2022-07-18T04:25:17;19.70;99.90
8593;DHT22;4334;49.982;8.398;2022-07-18T04:27:45;16.30;99.90
8593;DHT22;4334;49.982;8.398;2022-07-18T04:30:14;16.40;99.90
8593;DHT22;4334;49.982;8.398;2022-07-18T04:32:41;16.40;99.90
8593;DHT22;4334;49.982;8.398;2022-07-18T04:35:09;20.90;99.90
8593;DHT22;4334;49.982;8.398;2022-07-18T04:37:37;16.60;99.80
8593;DHT22;4334;49.982;8.398;2022-07-18T04:40:05;20.20;99.90
8593;DHT22;4334;49.982;8.398;2022-07-18T04:42:32;16.60;99.70
8593;DHT22;4334;49.982;8.398;2022-07-18T04:44:59;16.80;99.70
8593;DHT22;4334;49.982;8.398;2022-07-18T04:47:27;20.60;99.90
8593;DHT22;4334;49.982;8.398;2022-07-18T04:49:54;17.10;99.00
8593;DHT22;4334;49.982;8.398;2022-07-18T04:52:21;17.40;98.90
8593;DHT22;4334;49.982;8.398;2022-07-18T04:54:48;21.30;99.80
8593;DHT22;4334;49.982;8.398;2022-07-18T04:57:16;18.60;97.20
8593;DHT22;4334;49.982;8.398;2022-07-18T04:59:43;19.30;96.00
8593;DHT22;4334;49.982;8.398;2022-07-18T05:02:10;22.10;95.90
8593;DHT22;4334;49.982;8.398;2022-07-18T05:04:39;20.50;93.30
8593;DHT22;4334;49.982;8.398;2022-07-18T05:07:06;20.80;92.60
8593;DHT22;4334;49.982;8.398;2022-07-18T05:09:33;21.30;92.40
8593;DHT22;4334;49.982;8.398;2022-07-18T05:12:00;22.80;92.40
8593;DHT22;4334;49.982;8.398;2022-07-18T05:14:27;22.00;90.20
8593;DHT22;4334;49.982;8.398;2022-07-18T05:16:53;22.00;90.30
8593;DHT22;4334;49.982;8.398;2022-07-18T05:19:20;26.10;91.50
8593;DHT22;4334;49.982;8.398;2022-07-18T05:21:48;22.50;87.70
8593;DHT22;4334;49.982;8.398;2022-07-18T05:24:15;22.90;88.20
8593;DHT22;4334;49.982;8.398;2022-07-18T05:26:42;23.40;84.50
8593;DHT22;4334;49.982;8.398;2022-07-18T05:29:09;23.30;83.20
8593;DHT22;4334;49.982;8.398;2022-07-18T05:31:38;23.40;84.20
8593;DHT22;4334;49.982;8.398;2022-07-18T05:34:05;24.00;82.80
8593;DHT22;4334;49.982;8.398;2022-07-18T05:36:32;24.30;82.50
8593;DHT22;4334;49.982;8.398;2022-07-18T05:39:00;24.40;80.30
8593;DHT22;4334;49.982;8.398;2022-07-18T05:41:27;24.60;81.70
8593;DHT22;4334;49.982;8.398;2022-07-18T05:43:53;24.90;81.20
8593;DHT22;4334;49.982;8.398;2022-07-18T05:46:20;24.90;79.60
8593;DHT22;4334;49.982;8.398;2022-07-18T05:48:47;25.10;78.10
8593;DHT22;4334;49.982;8.398;2022-07-18T05:51:14;25.40;78.00
8593;DHT22;4334;49.982;8.398;2022-07-18T05:53:40;25.90;74.90
8593;DHT22;4334;49.982;8.398;2022-07-18T05:56:09;25.90;73.80
8593;DHT22;4334;49.982;8.398;2022-07-18T05:58:36;25.80;74.30
8593;DHT22;4334;49.982;8.398;2022-07-18T06:01:03;25.90;73.30
8593;DHT22;4334;49.982;8.398;2022-07-18T06:03:30;25.70;73.10
8593;DHT22;4334;49.982;8.398;2022-07-18T06:05:56;25.40;72.20
8593;DHT22;4334;49.982;8.398;2022-07-18T06:08:23;25.20;72.30
8593;DHT22;4334;49.982;8.398;2022-07-18T06:10:50;25.40;72.20
8593;DHT22;4334;49.982;8.398;2022-07-18T06:13:18;25.70;71.70
8593;DHT22;4334;49.982;8.398;2022-07-18T06:15:45;26.20;70.40
8593;DHT22;4334;49.982;8.398;2022-07-18T06:18:11;26.20;70.40
8593;DHT22;4334;49.982;8.398;2022-07-18T06:20:38;31.00;73.80
8593;DHT22;4334;49.982;8.398;2022-07-18T06:23:05;27.00;68.30
8593;DHT22;4334;49.982;8.398;2022-07-18T06:25:32;27.30;68.70
8593;DHT22;4334;49.982;8.398;2022-07-18T06:27:58;27.40;65.40
8593;DHT22;4334;49.982;8.398;2022-07-18T06:30:26;26.90;65.10
8593;DHT22;4334;49.982;8.398;2022-07-18T06:32:53;27.10;65.40
8593;DHT22;4334;49.982;8.398;2022-07-18T06:35:20;27.30;64.10
8593;DHT22;4334;49.982;8.398;2022-07-18T06:37:46;27.30;64.10
8593;DHT22;4334;49.982;8.398;2022-07-18T06:40:13;27.20;62.30
8593;DHT22;4334;49.982;8.398;2022-07-18T06:42:40;27.20;62.10
8593;DHT22;4334;49.982;8.398;2022-07-18T06:45:07;26.40;62.40
8593;DHT22;4334;49.982;8.398;2022-07-18T06:47:35;26.30;63.60
8593;DHT22;4334;49.982;8.398;2022-07-18T06:50:02;27.50;62.40
8593;DHT22;4334;49.982;8.398;2022-07-18T06:52:29;26.80;61.10
8593;DHT22;4334;49.982;8.398;2022-07-18T06:54:56;26.90;61.80
8593;DHT22;4334;49.982;8.398;2022-07-18T06:57:23;27.00;61.70
8593;DHT22;4334;49.982;8.398;2022-07-18T06:59:50;27.60;59.50
8593;DHT22;4334;49.982;8.398;2022-07-18T07:02:16;28.30;58.50
8593;DHT22;4334;49.982;8.398;2022-07-18T07:04:44;28.30;58.60
8593;DHT22;4334;49.982;8.398;2022-07-18T07:07:11;28.20;58.40
8593;DHT22;4334;49.982;8.398;2022-07-18T07:09:38;28.20;57.30
8593;DHT22;4334;49.982;8.398;2022-07-18T07:12:04;28.20;57.20
8593;DHT22;4334;49.982;8.398;2022-07-18T07:14:32;28.10;57.80
8593;DHT22;4334;49.982;8.398;2022-07-18T07:16:58;28.60;57.20
8593;DHT22;4334;49.982;8.398;2022-07-18T07:19:25;28.90;56.00
8593;DHT22;4334;49.982;8.398;2022-07-18T07:21:53;29.00;57.40
8593;DHT22;4334;49.982;8.398;2022-07-18T07:24:20;29.00;55.20
8593;DHT22;4334;49.982;8.398;2022-07-18T07:26:47;29.00;55.30
8593;DHT22;4334;49.982;8.398;2022-07-18T07:29:14;31.90;57.70
8593;DHT22;4334;49.982;8.398;2022-07-18T07:31:41;28.70;56.00
8593;DHT22;4334;49.982;8.398;2022-07-18T07:34:08;29.00;55.90
8593;DHT22;4334;49.982;8.398;2022-07-18T07:36:35;29.10;55.80
8593;DHT22;4334;49.982;8.398;2022-07-18T07:39:03;29.50;55.30
8593;DHT22;4334;49.982;8.398;2022-07-18T07:41:30;29.70;54.50
8593;DHT22;4334;49.982;8.398;2022-07-18T07:43:57;29.60;55.10
8593;DHT22;4334;49.982;8.398;2022-07-18T07:46:24;29.70;55.00
8593;DHT22;4334;49.982;8.398;2022-07-18T07:48:50;29.70;54.30
8593;DHT22;4334;49.982;8.398;2022-07-18T07:51:17;29.30;54.90
8593;DHT22;4334;49.982;8.398;2022-07-18T07:53:44;29.60;54.90
8593;DHT22;4334;49.982;8.398;2022-07-18T07:56:12;30.60;53.80
8593;DHT22;4334;49.982;8.398;2022-07-18T07:58:39;31.00;52.90
8593;DHT22;4334;49.982;8.398;2022-07-18T08:01:06;31.30;52.30
8593;DHT22;4334;49.982;8.398;2022-07-18T08:03:33;31.40;50.90
8593;DHT22;4334;49.982;8.398;2022-07-18T08:05:59;30.90;51.10
8593;DHT22;4334;49.982;8.398;2022-07-18T08:08:26;30.70;52.70
8593;DHT22;4334;49.982;8.398;2022-07-18T08:10:53;30.10;52.90
8593;DHT22;4334;49.982;8.398;2022-07-18T08:13:21;29.80;53.00
8593;DHT22;4334;49.982;8.398;2022-07-18T08:15:47;30.30;51.80
8593;DHT22;4334;49.982;8.398;2022-07-18T08:18:14;30.90;52.00
8593;DHT22;4334;49.982;8.398;2022-07-18T08:20:41;31.10;51.80
8593;DHT22;4334;49.982;8.398;2022-07-18T08:23:10;30.70;51.80
8593;DHT22;4334;49.982;8.398;2022-07-18T08:25:38;30.40;52.50
8593;DHT22;4334;49.982;8.398;2022-07-18T08:28:06;31.10;51.00
8593;DHT22;4334;49.982;8.398;2022-07-18T08:30:35;31.60;50.10
8593;DHT22;4334;49.982;8.398;2022-07-18T08:33:03;31.90;49.60
8593;DHT22;4334;49.982;8.398;2022-07-18T08:35:31;31.10;50.80
8593;DHT22;4334;49.982;8.398;2022-07-18T08:37:58;31.30;50.50
8593;DHT22;4334;49.982;8.398;2022-07-18T08:40:25;31.60;49.10
8593;DHT22;4334;49.982;8.398;2022-07-18T08:42:55;31.30;50.50
8593;DHT22;4334;49.982;8.398;2022-07-18T08:45:24;31.90;50.30
8593;DHT22;4334;49.982;8.398;2022-07-18T08:47:52;35.80;51.30
8593;DHT22;4334;49.982;8.398;2022-07-18T08:50:19;32.10;48.50
8593;DHT22;4334;49.982;8.398;2022-07-18T08:52:46;33.20;48.00
8593;DHT22;4334;49.982;8.398;2022-07-18T08:55:13;34.60;49.10
8593;DHT22;4334;49.982;8.398;2022-07-18T08:57:40;32.90;47.60
8593;DHT22;4334;49.982;8.398;2022-07-18T09:00:09;32.30;47.60
8593;DHT22;4334;49.982;8.398;2022-07-18T09:02:36;33.00;45.20
8593;DHT22;4334;49.982;8.398;2022-07-18T09:05:17;33.10;45.20
8593;DHT22;4334;49.982;8.398;2022-07-18T09:07:44;32.90;45.50
8593;DHT22;4334;49.982;8.398;2022-07-18T09:10:11;32.70;46.40
8593;DHT22;4334;49.982;8.398;2022-07-18T09:12:38;33.10;47.40
8593;DHT22;4334;49.982;8.398;2022-07-18T09:15:06;32.40;46.80
8593;DHT22;4334;49.982;8.398;2022-07-18T09:17:34;32.50;46.50
8593;DHT22;4334;49.982;8.398;2022-07-18T09:20:04;32.50;46.90
8593;DHT22;4334;49.982;8.398;2022-07-18T09:22:33;32.40;46.00
8593;DHT22;4334;49.982;8.398;2022-07-18T09:25:04;32.90;45.20
8593;DHT22;4334;49.982;8.398;2022-07-18T09:27:34;34.40;42.80
8593;DHT22;4334;49.982;8.398;2022-07-18T09:30:22;35.10;42.20
8593;DHT22;4334;49.982;8.398;2022-07-18T09:32:52;35.00;42.70
8593;DHT22;4334;49.982;8.398;2022-07-18T09:35:23;34.60;43.10
8593;DHT22;4334;49.982;8.398;2022-07-18T09:37:55;34.20;43.60
8593;DHT22;4334;49.982;8.398;2022-07-18T09:40:23;33.90;44.40
8593;DHT22;4334;49.982;8.398;2022-07-18T09:42:51;34.30;44.20
8593;DHT22;4334;49.982;8.398;2022-07-18T09:45:26;34.20;44.40
8593;DHT22;4334;49.982;8.398;2022-07-18T09:47:55;34.00;45.20
8593;DHT22;4334;49.982;8.398;2022-07-18T09:50:30;34.10;44.10
8593;DHT22;4334;49.982;8.398;2022-07-18T09:53:05;34.30;43.80
8593;DHT22;4334;49.982;8.398;2022-07-18T09:55:33;34.40;44.70
8593;DHT22;4334;49.982;8.398;2022-07-18T09:58:02;34.80;43.90
8593;DHT22;4334;49.982;8.398;2022-07-18T10:00:30;34.70;43.00
8593;DHT22;4334;49.982;8.398;2022-07-18T10:02:58;34.10;43.70
8593;DHT22;4334;49.982;8.398;2022-07-18T10:05:27;34.70;41.70
8593;DHT22;4334;49.982;8.398;2022-07-18T10:07:54;35.20;40.90
8593;DHT22;4334;49.982;8.398;2022-07-18T10:10:23;35.30;42.40
8593;DHT22;4334;49.982;8.398;2022-07-18T10:12:53;35.30;41.10
8593;DHT22;4334;49.982;8.398;2022-07-18T10:15:21;36.00;40.50
8593;DHT22;4334;49.982;8.398;2022-07-18T10:17:49;36.30;39.90
8593;DHT22;4334;49.982;8.398;2022-07-18T10:20:16;36.50;39.50
8593;DHT22;4334;49.982;8.398;2022-07-18T10:22:43;35.50;39.90
8593;DHT22;4334;49.982;8.398;2022-07-18T10:25:12;35.10;40.50
8593;DHT22;4334;49.982;8.398;2022-07-18T10:27:52;35.10;40.20
8593;DHT22;4334;49.982;8.398;2022-07-18T10:30:34;35.00;39.20
8593;DHT22;4334;49.982;8.398;2022-07-18T10:33:02;35.00;39.40
8593;DHT22;4334;49.982;8.398;2022-07-18T10:36:03;35.10;39.00
8593;DHT22;4334;49.982;8.398;2022-07-18T10:38:30;35.10;40.50
8593;DHT22;4334;49.982;8.398;2022-07-18T10:41:05;35.60;39.60
8593;DHT22;4334;49.982;8.398;2022-07-18T10:43:42;35.50;39.60
8593;DHT22;4334;49.982;8.398;2022-07-18T10:46:10;35.90;38.80
8593;DHT22;4334;49.982;8.398;2022-07-18T10:48:51;35.60;39.90
8593;DHT22;4334;49.982;8.398;2022-07-18T10:51:18;36.00;39.20
8593;DHT22;4334;49.982;8.398;2022-07-18T10:54:03;39.00;40.90
8593;DHT22;4334;49.982;8.398;2022-07-18T10:57:03;35.50;38.90
8593;DHT22;4334;49.982;8.398;2022-07-18T10:59:32;35.80;39.00
8593;DHT22;4334;49.982;8.398;2022-07-18T11:02:00;35.90;38.10
8593;DHT22;4334;49.982;8.398;2022-07-18T11:04:37;36.00;38.70
8593;DHT22;4334;49.982;8.398;2022-07-18T11:07:07;35.70;37.90
8593;DHT22;4334;49.982;8.398;2022-07-18T11:09:42;35.30;39.00
8593;DHT22;4334;49.982;8.398;2022-07-18T11:12:17;36.00;38.90
8593;DHT22;4334;49.982;8.398;2022-07-18T11:18:23;36.80;37.50
8593;DHT22;4334;49.982;8.398;2022-07-18T11:20:50;36.60;38.30
8593;DHT22;4334;49.982;8.398;2022-07-18T11:23:19;37.00;37.70
8593;DHT22;4334;49.982;8.398;2022-07-18T11:25:47;36.90;37.30
8593;DHT22;4334;49.982;8.398;2022-07-18T11:28:14;36.80;37.00
8593;DHT22;4334;49.982;8.398;2022-07-18T11:30:42;37.20;37.50
8593;DHT22;4334;49.982;8.398;2022-07-18T11:33:25;37.40;36.40
8593;DHT22;4334;49.982;8.398;2022-07-18T11:35:52;35.80;37.90
8593;DHT22;4334;49.982;8.398;2022-07-18T11:38:18;35.60;38.50
8593;DHT22;4334;49.982;8.398;2022-07-18T11:40:50;36.30;38.10
8593;DHT22;4334;49.982;8.398;2022-07-18T11:43:22;37.10;37.60
8593;DHT22;4334;49.982;8.398;2022-07-18T11:45:59;37.50;37.20
8593;DHT22;4334;49.982;8.398;2022-07-18T11:48:27;38.00;37.00
8593;DHT22;4334;49.982;8.398;2022-07-18T11:50:54;37.80;36.90
8593;DHT22;4334;49.982;8.398;2022-07-18T11:53:21;38.30;38.90
8593;DHT22;4334;49.982;8.398;2022-07-18T11:55:48;37.40;36.70
8593;DHT22;4334;49.982;8.398;2022-07-18T11:58:17;37.10;37.10
8593;DHT22;4334;49.982;8.398;2022-07-18T12:00:45;37.60;35.70
8593;DHT22;4334;49.982;8.398;2022-07-18T12:03:14;37.60;35.90
8593;DHT22;4334;49.982;8.398;2022-07-18T12:05:44;37.30;36.50
8593;DHT22;4334;49.982;8.398;2022-07-18T12:08:31;37.60;36.10
8593;DHT22;4334;49.982;8.398;2022-07-18T12:11:25;37.40;34.30
8593;DHT22;4334;49.982;8.398;2022-07-18T12:13:54;37.50;34.40
8593;DHT22;4334;49.982;8.398;2022-07-18T12:16:30;36.90;35.40
8593;DHT22;4334;49.982;8.398;2022-07-18T12:18:58;36.90;35.80
8593;DHT22;4334;49.982;8.398;2022-07-18T12:21:38;37.20;34.40
8593;DHT22;4334;49.982;8.398;2022-07-18T12:24:24;38.20;36.20
8593;DHT22;4334;49.982;8.398;2022-07-18T12:27:10;37.60;35.70
8593;DHT22;4334;49.982;8.398;2022-07-18T12:29:59;33.00;31.50
8593;DHT22;4334;49.982;8.398;2022-07-18T12:32:29;37.80;33.80
8593;DHT22;4334;49.982;8.398;2022-07-18T12:34:57;36.50;34.50
8593;DHT22;4334;49.982;8.398;2022-07-18T12:37:26;36.50;34.60
8593;DHT22;4334;49.982;8.398;2022-07-18T12:39:57;36.00;33.60
8593;DHT22;4334;49.982;8.398;2022-07-18T12:42:29;35.20;34.80
8593;DHT22;4334;49.982;8.398;2022-07-18T12:47:22;35.40;36.30
8593;DHT22;4334;49.982;8.398;2022-07-18T12:49:49;35.50;36.90
8593;DHT22;4334;49.982;8.398;2022-07-18T12:52:16;36.40;34.50
8593;DHT22;4334;49.982;8.398;2022-07-18T12:54:45;36.40;35.70
8593;DHT22;4334;49.982;8.398;2022-07-18T12:57:12;36.00;35.10
8593;DHT22;4334;49.982;8.398;2022-07-18T12:59:39;36.40;35.40
8593;DHT22;4334;49.982;8.398;2022-07-18T13:02:06;35.90;35.20
8593;DHT22;4334;49.982;8.398;2022-07-18T13:04:32;39.10;38.20
8593;DHT22;4334;49.982;8.398;2022-07-18T13:06:59;35.60;35.40
8593;DHT22;4334;49.982;8.398;2022-07-18T13:09:26;35.70;36.10
8593;DHT22;4334;49.982;8.398;2022-07-18T13:11:54;35.50;36.10
8593;DHT22;4334;49.982;8.398;2022-07-18T13:14:21;35.50;36.50
8593;DHT22;4334;49.982;8.398;2022-07-18T13:16:47;36.10;35.50
8593;DHT22;4334;49.982;8.398;2022-07-18T13:19:16;36.70;35.40
8593;DHT22;4334;49.982;8.398;2022-07-18T13:21:43;36.90;34.70
8593;DHT22;4334;49.982;8.398;2022-07-18T13:24:10;36.50;34.60
8593;DHT22;4334;49.982;8.398;2022-07-18T13:29:06;35.90;34.90
8593;DHT22;4334;49.982;8.398;2022-07-18T13:33:59;36.10;35.90
8593;DHT22;4334;49.982;8.398;2022-07-18T13:41:22;36.60;35.30
8593;DHT22;4334;49.982;8.398;2022-07-18T13:43:48;36.80;35.40
8593;DHT22;4334;49.982;8.398;2022-07-18T13:46:17;36.80;36.10
8593;DHT22;4334;49.982;8.398;2022-07-18T13:48:44;37.10;36.20
8593;DHT22;4334;49.982;8.398;2022-07-18T13:51:12;37.40;35.80
8593;DHT22;4334;49.982;8.398;2022-07-18T13:53:39;37.40;36.30
8593;DHT22;4334;49.982;8.398;2022-07-18T13:56:06;37.80;34.90
8593;DHT22;4334;49.982;8.398;2022-07-18T13:58:32;37.30;35.30
8593;DHT22;4334;49.982;8.398;2022-07-18T14:01:00;37.50;35.70
8593;DHT22;4334;49.982;8.398;2022-07-18T14:03:28;36.80;34.50
8593;DHT22;4334;49.982;8.398;2022-07-18T14:05:55;36.70;35.90
8593;DHT22;4334;49.982;8.398;2022-07-18T14:08:21;37.00;35.70
8593;DHT22;4334;49.982;8.398;2022-07-18T14:10:48;40.20;37.40
8593;DHT22;4334;49.982;8.398;2022-07-18T14:13:15;37.30;35.40
8593;DHT22;4334;49.982;8.398;2022-07-18T14:15:42;37.40;35.20
8593;DHT22;4334;49.982;8.398;2022-07-18T14:18:08;37.60;35.40
8593;DHT22;4334;49.982;8.398;2022-07-18T14:20:37;37.90;35.00
8593;DHT22;4334;49.982;8.398;2022-07-18T14:23:03;37.70;35.30
8593;DHT22;4334;49.982;8.398;2022-07-18T14:25:30;38.20;35.40
8593;DHT22;4334;49.982;8.398;2022-07-18T14:27:58;38.70;34.00
8593;DHT22;4334;49.982;8.398;2022-07-18T14:30:24;38.70;34.70
8593;DHT22;4334;49.982;8.398;2022-07-18T14:32:51;38.50;34.80
8593;DHT22;4334;49.982;8.398;2022-07-18T14:35:18;38.20;35.20
8593;DHT22;4334;49.982;8.398;2022-07-18T14:37:46;38.60;34.40
8593;DHT22;4334;49.982;8.398;2022-07-18T14:40:12;38.50;34.30
8593;DHT22;4334;49.982;8.398;2022-07-18T14:42:39;37.80;34.90
8593;DHT22;4334;49.982;8.398;2022-07-18T14:45:07;38.10;34.90
8593;DHT22;4334;49.982;8.398;2022-07-18T14:47:34;38.10;35.20
8593;DHT22;4334;49.982;8.398;2022-07-18T14:50:01;37.90;34.50
8593;DHT22;4334;49.982;8.398;2022-07-18T14:52:28;37.60;34.90
8593;DHT22;4334;49.982;8.398;2022-07-18T14:54:56;37.40;35.20
8593;DHT22;4334;49.982;8.398;2022-07-18T14:57:23;37.40;35.20
8593;DHT22;4334;49.982;8.398;2022-07-18T14:59:49;37.20;35.00
8593;DHT22;4334;49.982;8.398;2022-07-18T15:02:16;37.10;34.70
8593;DHT22;4334;49.982;8.398;2022-07-18T15:04:43;37.10;35.30
8593;DHT22;4334;49.982;8.398;2022-07-18T15:07:10;37.10;35.10
8593;DHT22;4334;49.982;8.398;2022-07-18T15:09:36;36.90;35.60
8593;DHT22;4334;49.982;8.398;2022-07-18T15:12:05;37.10;36.70
8593;DHT22;4334;49.982;8.398;2022-07-18T15:14:33;37.80;35.60
8593;DHT22;4334;49.982;8.398;2022-07-18T15:17:00;38.30;35.50
8593;DHT22;4334;49.982;8.398;2022-07-18T15:19:26;38.70;34.90
8593;DHT22;4334;49.982;8.398;2022-07-18T15:21:53;38.40;34.50
8593;DHT22;4334;49.982;8.398;2022-07-18T15:24:20;38.20;34.60
8593;DHT22;4334;49.982;8.398;2022-07-18T15:26:46;38.00;35.00
8593;DHT22;4334;49.982;8.398;2022-07-18T15:29:14;38.30;35.10
8593;DHT22;4334;49.982;8.398;2022-07-18T15:31:41;38.40;35.00
8593;DHT22;4334;49.982;8.398;2022-07-18T15:34:08;38.60;34.70
8593;DHT22;4334;49.982;8.398;2022-07-18T15:36:35;38.40;34.50
8593;DHT22;4334;49.982;8.398;2022-07-18T15:39:01;38.20;35.00
8593;DHT22;4334;49.982;8.398;2022-07-18T15:41:28;38.30;35.00
8593;DHT22;4334;49.982;8.398;2022-07-18T15:43:55;39.40;34.40
8593;DHT22;4334;49.982;8.398;2022-07-18T15:46:23;39.00;34.50
8593;DHT22;4334;49.982;8.398;2022-07-18T15:48:50;38.70;34.50
8593;DHT22;4334;49.982;8.398;2022-07-18T15:51:17;38.30;34.70
8593;DHT22;4334;49.982;8.398;2022-07-18T15:53:44;38.70;35.50
8593;DHT22;4334;49.982;8.398;2022-07-18T15:56:10;38.60;34.70
8593;DHT22;4334;49.982;8.398;2022-07-18T15:58:37;38.60;34.70
8593;DHT22;4334;49.982;8.398;2022-07-18T16:01:04;38.90;34.00
8593;DHT22;4334;49.982;8.398;2022-07-18T16:03:32;38.90;33.10
8593;DHT22;4334;49.982;8.398;2022-07-18T16:05:59;38.40;34.40
8593;DHT22;4334;49.982;8.398;2022-07-18T16:08:26;38.70;34.30
8593;DHT22;4334;49.982;8.398;2022-07-18T16:10:53;39.10;35.00
8593;DHT22;4334;49.982;8.398;2022-07-18T16:15:47;37.70;34.60
8593;DHT22;4334;49.982;8.398;2022-07-18T16:20:43;37.70;35.00
8593;DHT22;4334;49.982;8.398;2022-07-18T16:23:09;37.60;35.60
8593;DHT22;4334;49.982;8.398;2022-07-18T16:25:36;37.50;35.50
8593;DHT22;4334;49.982;8.398;2022-07-18T16:28:04;38.10;34.60
8593;DHT22;4334;49.982;8.398;2022-07-18T16:30:31;37.90;34.50
8593;DHT22;4334;49.982;8.398;2022-07-18T16:32:58;38.20;33.90
8593;DHT22;4334;49.982;8.398;2022-07-18T16:37:53;39.00;34.20
8593;DHT22;4334;49.982;8.398;2022-07-18T16:45:15;38.10;34.40
8593;DHT22;4334;49.982;8.398;2022-07-18T16:47:42;37.80;34.40
8593;DHT22;4334;49.982;8.398;2022-07-18T16:55:08;36.80;35.40
8593;DHT22;4334;49.982;8.398;2022-07-18T17:00:03;37.30;35.20
8593;DHT22;4334;49.982;8.398;2022-07-18T17:04:58;37.40;35.20
8593;DHT22;4334;49.982;8.398;2022-07-18T17:07:25;37.30;34.90
8593;DHT22;4334;49.982;8.398;2022-07-18T17:09:52;37.20;35.00
8593;DHT22;4334;49.982;8.398;2022-07-18T17:12:20;36.90;35.40
8593;DHT22;4334;49.982;8.398;2022-07-18T17:14:48;36.90;35.40
8593;DHT22;4334;49.982;8.398;2022-07-18T17:17:18;37.10;34.70
8593;DHT22;4334;49.982;8.398;2022-07-18T17:19:46;36.90;34.70
8593;DHT22;4334;49.982;8.398;2022-07-18T17:22:13;36.70;35.40